Sunday, May 27, 2018, 9:51 AM EDT
Back to Local

KSFM, Sanford, Sanford Regional Airport

Location: Sanford, ME, United States Lat: 43.4
Local Time: 9:51 AM EDT (13:51 GMT) Lon: -70.717
Time Zone: US/Eastern Elev: 242 ft

Show me the last for .
Show Decoded

2018-05-27 08:56 METAR KSFM 271256Z AUTO 06010KT 10SM OVC060 12/08 A3027 RMK AO2 SLP251 T01220078
                 =
2018-05-27 07:56 METAR KSFM 271156Z AUTO 07007KT 10SM SCT012 OVC060 11/09 A3024 RMK AO2 SLP243
                 60000 70032 T01110089 10150 20111 51027 =
2018-05-27 06:56 METAR KSFM 271056Z AUTO 07006KT 9SM BKN010 OVC060 11/09 A3022 RMK AO2 SLP237
                 T01110094 =
2018-05-27 05:56 METAR KSFM 270956Z AUTO 07008KT 10SM OVC012 11/09 A3019 RMK AO2 SLP226 T01110094
                 =
2018-05-27 05:18 METAR KSFM 270918Z AUTO 07009KT 10SM BKN014 BKN025 OVC070 11/09 A3016 RMK AO2 =
2018-05-27 05:03 METAR KSFM 270903Z AUTO 07010KT 10SM FEW014 BKN025 OVC075 12/09 A3016 RMK AO2 =
2018-05-27 04:56 METAR KSFM 270856Z AUTO 08008KT 10SM FEW014 SCT023 OVC075 12/09 A3016 RMK AO2
                 SLP216 60000 T01170094 51021 =
2018-05-27 04:21 METAR KSFM 270821Z AUTO 06013KT 10SM SCT019 BKN080 OVC110 12/09 A3015 RMK AO2 =
2018-05-27 04:14 METAR KSFM 270814Z AUTO 07008KT 10SM FEW014 BKN018 OVC120 12/09 A3015 RMK AO2 =
2018-05-27 03:56 METAR KSFM 270756Z AUTO 08007G15KT 10SM SCT014 BKN080 OVC110 12/10 A3015 RMK AO2
                 RAE52 SLP211 P0000 T01170100 =
2018-05-27 02:56 METAR KSFM 270656Z AUTO 04008KT 10SM -RA BKN047 OVC070 13/12 A3012 RMK AO2
                 SLP201 P0000 T01330117 =
2018-05-27 01:56 METAR KSFM 270556Z AUTO 07004KT 10SM -RA OVC044 15/13 A3010 RMK AO2 RAB49 SLP195
                 P0000 60027 T01500128 10189 20150 53038 =
2018-05-27 00:56 METAR KSFM 270456Z AUTO 09008KT 10SM SCT006 BKN032 OVC060 16/15 A3006 RMK AO2
                 SLP182 T01610150 =
2018-05-26 23:56 METAR KSFM 270356Z AUTO 07011G16KT 10SM BKN007 BKN075 OVC110 18/18 A3002 RMK AO2
                 CIG 005V017 SLP168 T01830178 402720139 =
2018-05-26 22:56 METAR KSFM 270256Z AUTO 00000KT 10SM FEW013 BKN070 OVC100 18/18 A2999 RMK AO2
                 RAE17 SLP156 P0001 60027 T01830178 51026 =
2018-05-26 22:18 METAR KSFM 270218Z AUTO 00000KT 7SM SCT003 SCT038 OVC070 18/18 A2997 RMK AO2
                 RAE17 P0001 =
2018-05-26 21:56 METAR KSFM 270156Z AUTO 00000KT 8SM -RA FEW030 BKN055 OVC070 18/18 A2996 RMK AO2
                 SLP148 P0010 T01780178 =
2018-05-26 19:56 METAR KSFM 262356Z AUTO 01005KT 6SM +RA BR FEW038 BKN049 OVC055 19/18 A2991 RMK
                 AO2 RAB28 SLP129 P0005 60005 T01890178 10272 20189 53031 =
2018-05-26 18:56 METAR KSFM 262256Z AUTO 35007KT 10SM FEW050 BKN085 OVC120 21/17 A2987 RMK AO2
                 SLP117 T02110167 =
2018-05-26 17:56 METAR KSFM 262156Z AUTO 02012KT 10SM BKN080 22/17 A2984 RMK AO2 SLP106 T02220167
                 =
2018-05-26 16:56 METAR KSFM 262056Z AUTO 04012KT 10SM OVC120 23/17 A2982 RMK AO2 SLP098 T02330167
                 53021 =
2018-05-26 15:56 METAR KSFM 261956Z AUTO 04012KT 10SM FEW070 25/18 A2979 RMK AO2 SLP090 T02500178
                 =
2018-05-26 14:56 METAR KSFM 261856Z AUTO 28007KT 10SM CLR 27/16 A2978 RMK AO2 SLP085 T02720161 =
2018-05-26 13:56 METAR KSFM 261756Z AUTO 26005KT 10SM CLR 27/16 A2976 RMK AO2 SLP077 T02670156
                 10267 20217 50004 =
2018-05-26 12:56 METAR KSFM 261656Z AUTO 27006KT 10SM CLR 26/14 A2976 RMK AO2 SLP078 T02610144 =
2018-05-26 11:56 METAR KSFM 261556Z AUTO 28008KT 10SM CLR 26/14 A2976 RMK AO2 SLP077 T02560139 =
2018-05-26 10:56 METAR KSFM 261456Z AUTO 00000KT 10SM CLR 24/15 A2974 RMK AO2 SLP073 T02390150
                 53011 =
2018-05-26 09:56 METAR KSFM 261356Z AUTO 28005KT 10SM CLR 24/14 A2974 RMK AO2 SLP071 T02390144 =

Support USWX by starting your Amazon purchase here.